Tropical Cyclones
[Index]
Main Index Home Page Stock Weather Photos Extreme Storms Discussion Storm News and Storm Chasing Reports Tropical Cyclones / Hurricanes / Typhoons Weather Data and Links Wild Fires / Bushfires Weather Observation Techniques Weather Picture Catalogue Tornado Pictures and Reports Stock Video Footage and DVDs for sale
Season 1990-1991 Tropical Cyclone JOY Track Map
Season 1990-1991 Summaries: [BoM-AU] [JTWC-AU] [JTWC-SIO] [JTWC-SPAC] [JTWC-SH]
<<- Previous TC | JTWC 1990-1991 Season | Next TC ->>

click for intensity scale information  Lat/long Grid: Show Hide

 Date Labels: Show Hide

Joint Typhoon Warning Centre Cyclone Data

Name: JOY

15 Dec 1990 18:00 UTC to 27 Dec 1990 06:00 UTC

    date/time    lat    long     hPa   cat  kts
1990-12-15 18   10.5   164.7                  20          
1990-12-16 00   10.7   163.7                  25          
1990-12-16 06   11.2   162.5                  25          
1990-12-16 12   11.1   161.4                  25          
1990-12-16 18   11.1   160.7                  25          
1990-12-17 00   11.2   160.1                  25          
1990-12-17 06   11.4   159.4                  30          
1990-12-17 12   11.6   158.7                  30          
1990-12-17 18   11.9   158.1                  25          
1990-12-18 00   12.2   157.5                  25          
1990-12-18 06   12.6   156.8                  25          
1990-12-18 12   12.8   156.0                  30          
1990-12-18 18   12.8   154.9                  30          
1990-12-19 00   12.7   153.8                  30          
1990-12-19 06   12.5   152.7                  30          
1990-12-19 12   12.4   151.9                  35          
1990-12-19 18   12.3   151.3            1     40          
1990-12-20 00   12.2   150.8            1     45          
1990-12-20 06   12.2   150.2            1     50          
1990-12-20 12   12.5   149.8            2     55          
1990-12-20 18   12.9   149.4            2     55          
1990-12-21 00   13.4   149.0            2     55          
1990-12-21 06   13.8   148.5            2     55          
1990-12-21 12   14.2   148.0            2     55          
1990-12-21 18   14.6   147.7            2     60          
1990-12-22 00   15.0   147.4            2     65          
1990-12-22 06   15.3   147.2            2     70          
1990-12-22 12   15.6   147.0            3     75          
1990-12-22 18   15.8   146.8            3     85          
1990-12-23 00   16.0   146.6            3     90          
1990-12-23 06   16.1   146.6            3     90          
1990-12-23 12   16.2   146.6            3     90          
1990-12-23 18   16.3   146.7            3     90          
1990-12-24 00   16.4   146.8            3     85          
1990-12-24 06   16.6   146.9            3     80          
1990-12-24 12   16.7   147.1            3     75          
1990-12-24 18   16.9   147.3            2     70          
1990-12-25 00   17.0   147.5            2     65          
1990-12-25 06   17.2   147.7            2     55          
1990-12-25 12   17.4   148.0            1     45          
1990-12-25 18   17.7   148.0            1     45          
1990-12-26 00   18.3   147.9            1     45          
1990-12-26 06   18.8   147.5            1     45          
1990-12-26 12   19.1   146.9            1     40          
1990-12-26 18   19.5   146.5                  35          
1990-12-27 00   20.2   146.3                  30          
1990-12-27 06   21.0   146.2                  25          
Winds are 1-min average.

Tropical cyclone tracks developed by Michael Bath using data from the Joint Typhoon Warning Centre Best Tracks and Google Maps.


[Australian Severe Weather index] [Copyright Notice] [Email Contacts] [Search This Site] [Privacy Policy]
Document: tropical_cyclone_joy.htm Updated: 18 September 2016